Time;durP1;ratioP1;P1;durP2;ratioP2;P2;SDS_P1;SDS_P2;PMS_P1;PMS_P2;Temp;Humidity;BMP_temperature;BMP_pressure;BME280_temperature;BME280_humidity;BME280_pressure;Samples;Min_cycle;Max_cycle;Signal;HPM_P1;HPM_P2
2022/08/04 00:02:55;;;;;;;3.05;2.20;;;18.90;99.90;;;;;;5115672;28;20097;-49
2022/08/04 00:05:52;;;;;;;4.50;2.40;;;18.90;99.90;;;;;;5113923;27;20518;-51
2022/08/04 00:08:22;;;;;;;3.92;2.20;;;18.90;99.90;;;;;;5129482;27;20039;-48
2022/08/04 00:10:57;;;;;;;2.67;2.15;;;18.90;99.90;;;;;;5135758;27;20043;-48
2022/08/04 00:13:26;;;;;;;3.40;2.30;;;18.90;99.90;;;;;;5136062;27;20072;-49
2022/08/04 00:15:56;;;;;;;2.65;2.08;;;18.80;99.90;;;;;;5135588;27;20088;-48
2022/08/04 00:18:28;;;;;;;3.88;2.30;;;18.80;99.90;;;;;;5135855;27;20043;-49
2022/08/04 00:21:03;;;;;;;4.20;2.50;;;18.80;99.90;;;;;;5135641;27;20047;-49
2022/08/04 00:23:34;;;;;;;4.55;2.50;;;18.70;99.90;;;;;;5135308;27;20036;-49
2022/08/04 00:26:21;;;;;;;3.90;2.30;;;18.70;99.90;;;;;;5115248;28;20036;-50
2022/08/04 00:28:52;;;;;;;4.63;2.42;;;18.60;99.90;;;;;;5115405;28;20036;-48
2022/08/04 00:31:18;;;;;;;2.97;2.30;;;18.60;99.90;;;;;;5126886;27;20039;-49
2022/08/04 00:34:08;;;;;;;2.58;2.20;;;18.60;99.90;;;;;;5135728;27;20400;-49
2022/08/04 00:36:35;;;;;;;11.38;2.67;;;18.50;99.90;;;;;;5135583;27;20055;-49
2022/08/04 00:39:02;;;;;;;3.15;2.45;;;18.40;99.90;;;;;;5134368;27;20054;-48
2022/08/04 00:41:33;;;;;;;;;;;18.40;99.90;;;;;;5130228;27;20039;-50
2022/08/04 00:44:38;;;;;;;6.07;2.80;;;18.30;99.90;;;;;;5115244;28;20331;-48
2022/08/04 00:47:31;;;;;;;6.47;2.60;;;18.20;99.90;;;;;;5114883;28;20051;-49
2022/08/04 00:50:17;;;;;;;3.25;2.53;;;18.10;99.90;;;;;;5127393;27;20483;-49
2022/08/04 00:53:06;;;;;;;3.88;2.40;;;18.00;99.90;;;;;;5135302;27;20380;-50
2022/08/04 00:55:54;;;;;;;6.20;2.80;;;17.90;99.90;;;;;;5135383;27;20510;-50
2022/08/04 00:58:46;;;;;;;6.05;2.90;;;18.00;99.90;;;;;;5134672;27;20042;-49
2022/08/04 01:01:53;;;;;;;4.03;2.67;;;18.00;99.90;;;;;;5123900;22;20051;-50
2022/08/04 01:04:54;;;;;;;2.65;2.45;;;18.10;99.90;;;;;;5113084;27;20100;-50
2022/08/04 01:07:45;;;;;;;4.05;2.22;;;18.10;99.90;;;;;;5093987;28;20246;-49
2022/08/04 01:10:39;;;;;;;2.80;2.40;;;17.90;99.90;;;;;;5099494;28;20050;-51
2022/08/04 01:13:45;;;;;;;3.13;2.47;;;17.70;99.90;;;;;;5093997;28;20040;-50
2022/08/04 01:16:16;;;;;;;3.60;2.55;;;17.60;99.90;;;;;;5092816;28;20051;-51
2022/08/04 01:18:57;;;;;;;4.38;2.42;;;17.40;99.90;;;;;;5092418;28;20500;-50
2022/08/04 01:21:30;;;;;;;5.82;2.63;;;17.40;99.90;;;;;;5092255;28;20067;-49
2022/08/04 01:24:32;;;;;;;3.67;2.70;;;17.40;99.90;;;;;;5093846;28;20040;-50
2022/08/04 01:27:10;;;;;;;3.03;2.45;;;17.40;99.90;;;;;;5085324;28;20098;-50
2022/08/04 01:29:48;;;;;;;3.30;2.15;;;17.30;99.90;;;;;;5093709;28;20098;-50
2022/08/04 01:32:39;;;;;;;4.28;2.70;;;17.30;99.90;;;;;;5093521;28;20412;-49
2022/08/04 01:35:12;;;;;;;3.00;2.17;;;17.30;99.90;;;;;;5093382;28;20040;-49
2022/08/04 01:38:06;;;;;;;4.45;2.40;;;17.40;99.90;;;;;;5091463;28;20119;-49
2022/08/04 01:40:52;;;;;;;3.35;2.33;;;17.40;99.90;;;;;;5092998;28;20050;-53
2022/08/04 01:43:20;;;;;;;3.53;2.60;;;17.30;99.90;;;;;;5093451;28;20055;-50
2022/08/04 01:45:59;;;;;;;4.55;2.50;;;17.20;99.90;;;;;;5090221;28;20052;-51
2022/08/04 01:48:27;;;;;;;2.97;2.65;;;17.10;99.90;;;;;;5093370;28;20032;-51
2022/08/04 01:50:58;;;;;;;6.10;2.67;;;17.00;99.90;;;;;;5093015;28;20039;-52
2022/08/04 01:53:31;;;;;;;4.45;2.42;;;17.00;99.90;;;;;;5093219;28;20051;-51
2022/08/04 01:56:00;;;;;;;3.58;2.55;;;17.00;99.90;;;;;;5092275;28;20067;-51
2022/08/04 01:58:30;;;;;;;2.75;2.28;;;17.10;99.90;;;;;;5093144;28;20040;-49
2022/08/04 02:00:57;;;;;;;5.68;2.53;;;17.10;99.90;;;;;;5092511;28;20036;-51
2022/08/04 02:03:24;;;;;;;5.10;2.30;;;17.10;99.90;;;;;;5088298;28;20036;-51
2022/08/04 02:06:40;;;;;;;3.13;2.75;;;17.10;99.90;;;;;;5072806;28;20471;-49
2022/08/04 02:09:22;;;;;;;4.75;2.70;;;17.00;99.90;;;;;;5043913;28;20060;-51
2022/08/04 02:12:03;;;;;;;4.13;2.40;;;16.90;99.90;;;;;;5089794;28;20446;-50
2022/08/04 02:14:44;;;;;;;3.10;2.50;;;16.80;99.90;;;;;;5092814;28;20044;-50
2022/08/04 02:17:30;;;;;;;3.05;2.30;;;16.90;99.90;;;;;;5092861;28;20419;-50
2022/08/04 02:20:14;;;;;;;3.55;2.08;;;16.90;99.90;;;;;;5090708;28;20040;-50
2022/08/04 02:22:57;;;;;;;3.97;2.35;;;16.90;99.90;;;;;;5092835;28;20040;-49
2022/08/04 02:25:28;;;;;;;3.42;2.80;;;17.00;99.90;;;;;;5091833;28;20044;-50
2022/08/04 02:28:11;;;;;;;5.20;2.40;;;17.00;99.90;;;;;;5090777;28;20055;-49
2022/08/04 02:30:57;;;;;;;4.57;2.60;;;17.10;99.90;;;;;;5092179;28;20063;-51
2022/08/04 02:33:35;;;;;;;2.83;2.33;;;17.10;99.90;;;;;;5092575;28;20058;-50
2022/08/04 02:36:05;;;;;;;3.88;2.42;;;17.10;99.90;;;;;;5091710;28;20054;-50
2022/08/04 02:38:57;;;;;;;4.75;2.75;;;17.20;99.90;;;;;;5092284;28;20596;-49
2022/08/04 02:41:26;;;;;;;3.00;2.30;;;17.10;99.90;;;;;;5090990;28;20089;-52
2022/08/04 02:44:00;;;;;;;4.07;2.67;;;17.10;99.90;;;;;;5090020;28;20047;-49
2022/08/04 02:46:30;;;;;;;3.38;2.75;;;17.10;99.90;;;;;;5092161;28;20048;-50
2022/08/04 02:49:00;;;;;;;4.90;3.10;;;17.10;99.90;;;;;;5092117;28;20044;-51
2022/08/04 02:51:29;;;;;;;3.45;3.03;;;17.20;99.90;;;;;;5085778;28;20032;-49
2022/08/04 02:53:58;;;;;;;3.00;2.60;;;17.20;99.90;;;;;;5092055;28;20480;-50
2022/08/04 02:56:28;;;;;;;4.53;3.20;;;17.30;99.90;;;;;;5091993;28;20044;-49
2022/08/04 02:59:05;;;;;;;6.70;3.63;;;17.30;99.90;;;;;;5092059;28;20044;-52
2022/08/04 03:01:32;;;;;;;6.03;2.70;;;17.30;99.90;;;;;;5084381;28;20044;-49
2022/08/04 03:04:23;;;;;;;6.53;3.25;;;17.30;99.90;;;;;;5091950;28;20044;-50
2022/08/04 03:07:45;;;;;;;3.75;2.97;;;17.30;99.90;;;;;;5091622;28;20087;-50
2022/08/04 03:10:23;;;;;;;4.40;2.67;;;17.30;99.90;;;;;;5085259;28;20109;-51
2022/08/04 03:13:02;;;;;;;4.40;3.03;;;17.30;99.90;;;;;;5091655;28;20043;-49
2022/08/04 03:15:44;;;;;;;5.00;3.65;;;17.20;99.90;;;;;;5091928;28;20063;-49
2022/08/04 03:18:38;;;;;;;11.43;3.58;;;17.20;99.90;;;;;;5087109;28;20043;-49
2022/08/04 03:21:08;;;;;;;3.78;3.33;;;17.30;99.90;;;;;;5091110;28;20476;-51
2022/08/04 03:24:10;;;;;;;7.13;4.20;;;17.30;99.90;;;;;;5091025;28;20048;-50
2022/08/04 03:27:34;;;;;;;5.75;3.55;;;17.40;99.90;;;;;;5090857;28;20048;-49
2022/08/04 03:30:05;;;;;;;4.93;3.35;;;17.40;99.90;;;;;;5047603;28;20045;-48
2022/08/04 03:32:46;;;;;;;7.95;3.03;;;17.40;99.90;;;;;;5070999;28;20065;-49
2022/08/04 03:35:27;;;;;;;4.05;2.83;;;17.40;99.90;;;;;;5081332;28;20126;-51
2022/08/04 03:38:32;;;;;;;3.28;2.67;;;17.20;99.90;;;;;;5101028;28;20040;-49
2022/08/04 03:41:25;;;;;;;4.40;2.65;;;17.00;99.90;;;;;;5036023;28;20056;-54
2022/08/04 03:44:45;;;;;;;6.03;2.78;;;16.70;99.90;;;;;;5074965;28;20040;-50
2022/08/04 03:47:36;;;;;;;4.18;3.28;;;16.50;99.90;;;;;;5071873;28;20067;-49
2022/08/04 03:53:07;;;;;;;6.63;4.07;;;16.40;99.90;;;;;;5082422;28;20110;-50
2022/08/04 03:54:14;;;;;;;4.30;3.53;;;16.60;99.90;;;;;;5071203;28;20048;-49
2022/08/04 03:57:07;;;;;;;6.68;3.97;;;16.80;99.90;;;;;;5070818;28;20044;-48
2022/08/04 04:00:03;;;;;;;5.90;2.90;;;16.80;99.90;;;;;;5077629;28;20052;-51
2022/08/04 04:03:13;;;;;;;3.95;2.53;;;16.70;99.90;;;;;;5078608;28;20048;-49
2022/08/04 04:06:03;;;;;;;10.82;3.95;;;16.60;99.90;;;;;;5072601;28;20060;-49
2022/08/04 04:09:08;;;;;;;4.95;2.95;;;16.70;99.90;;;;;;5071782;28;20378;-50
2022/08/04 04:11:45;;;;;;;8.80;3.00;;;16.70;99.90;;;;;;5072112;28;20497;-49
2022/08/04 04:14:32;;;;;;;6.93;4.20;;;16.70;99.90;;;;;;5078981;28;20032;-51
2022/08/04 04:17:31;;;;;;;4.28;3.25;;;16.60;99.90;;;;;;5084617;28;20451;-49
2022/08/04 04:20:32;;;;;;;3.22;2.83;;;16.60;99.90;;;;;;5080827;28;20051;-49
2022/08/04 04:23:04;;;;;;;3.45;2.60;;;16.50;99.90;;;;;;5080987;28;20086;-49
2022/08/04 04:25:41;;;;;;;3.10;2.40;;;16.50;99.90;;;;;;5088642;28;20040;-50
2022/08/04 04:28:27;;;;;;;4.90;3.20;;;16.50;99.90;;;;;;5082654;28;20093;-53
2022/08/04 04:31:50;;;;;;;5.22;3.22;;;16.60;99.90;;;;;;5085523;28;20047;-49
2022/08/04 04:34:25;;;;;;;6.63;3.05;;;16.70;99.90;;;;;;5085401;28;20044;-51
2022/08/04 04:37:10;;;;;;;5.60;3.25;;;16.80;99.90;;;;;;5087895;28;20082;-51
2022/08/04 04:40:01;;;;;;;8.50;3.92;;;16.90;99.90;;;;;;5093525;28;20040;-49
2022/08/04 04:42:46;;;;;;;8.15;5.20;;;17.00;99.90;;;;;;5092907;28;20043;-50
2022/08/04 04:45:32;;;;;;;8.25;4.55;;;17.10;99.90;;;;;;5087820;28;20051;-51
2022/08/04 04:48:16;;;;;;;4.60;3.65;;;17.30;99.90;;;;;;5076012;28;20392;-53
2022/08/04 04:50:57;;;;;;;8.57;3.80;;;17.30;99.90;;;;;;5074431;28;20059;-51
2022/08/04 04:54:03;;;;;;;8.25;3.50;;;17.40;99.90;;;;;;5075223;28;20501;-49
2022/08/04 04:56:45;;;;;;;6.70;3.75;;;17.40;99.90;;;;;;5073228;28;20052;-51
2022/08/04 04:59:17;;;;;;;6.95;3.80;;;17.40;99.90;;;;;;5074779;28;20039;-50
2022/08/04 05:05:16;;;;;;;4.95;3.53;;;17.60;99.90;;;;;;5062796;28;20048;-51
2022/08/04 05:08:21;;;;;;;6.68;3.45;;;17.70;99.90;;;;;;5076552;28;20042;-50
2022/08/04 05:11:45;;;;;;;5.85;3.67;;;17.80;99.90;;;;;;5081723;28;20044;-52
2022/08/04 05:14:29;;;;;;;7.40;3.67;;;17.90;99.90;;;;;;5011481;28;20065;-49
2022/08/04 05:17:22;;;;;;;6.25;3.97;;;18.00;99.90;;;;;;5083196;28;20122;-49
2022/08/04 05:19:52;;;;;;;6.70;3.75;;;18.00;99.90;;;;;;5093372;28;20044;-54
2022/08/04 05:22:30;;;;;;;7.07;3.47;;;18.00;99.90;;;;;;5093886;28;20051;-53
2022/08/04 05:25:11;;;;;;;4.53;3.25;;;18.10;99.90;;;;;;5093653;28;20078;-52
2022/08/04 05:27:45;;;;;;;6.35;3.33;;;18.10;99.90;;;;;;5089716;28;20432;-50
2022/08/04 05:30:12;;;;;;;8.55;4.20;;;18.10;99.90;;;;;;5073143;28;20239;-51
2022/08/04 05:33:00;;;;;;;;;;;18.10;99.90;;;;;;5073659;28;20051;-50
2022/08/04 05:35:39;;;;;;;4.53;3.30;;;18.20;99.90;;;;;;5079391;28;19919;-51
2022/08/04 05:38:33;;;;;;;4.22;3.78;;;18.30;99.90;;;;;;5087779;28;20044;-52
2022/08/04 05:41:01;;;;;;;7.53;3.58;;;18.40;99.90;;;;;;5092993;28;20044;-51
2022/08/04 05:43:29;;;;;;;4.75;3.63;;;18.40;99.90;;;;;;5089356;28;20032;-50
2022/08/04 05:45:57;;;;;;;5.72;3.70;;;18.40;99.90;;;;;;5092698;28;20055;-49
2022/08/04 05:48:25;;;;;;;5.00;3.63;;;18.50;99.90;;;;;;5092841;28;20047;-49
2022/08/04 05:50:52;;;;;;;5.55;4.00;;;18.60;99.90;;;;;;5092619;28;20068;-50
2022/08/04 05:53:27;;;;;;;5.43;4.22;;;18.60;99.90;;;;;;5084365;28;20047;-51
2022/08/04 05:55:55;;;;;;;6.18;3.97;;;18.70;99.90;;;;;;5093344;28;20098;-50
2022/08/04 05:58:29;;;;;;;5.40;4.40;;;18.80;99.90;;;;;;5093242;28;20503;-50
2022/08/04 06:01:00;;;;;;;8.35;4.03;;;18.80;99.90;;;;;;5088863;28;20563;-50
2022/08/04 06:03:30;;;;;;;7.68;4.10;;;18.90;99.90;;;;;;5093079;28;20054;-49
2022/08/04 06:05:58;;;;;;;6.40;4.07;;;18.90;99.90;;;;;;5092780;28;20036;-49
2022/08/04 06:08:25;;;;;;;5.95;3.90;;;19.00;99.90;;;;;;5091332;28;20408;-51
2022/08/04 06:10:55;;;;;;;5.45;4.22;;;19.00;99.90;;;;;;5103437;28;20047;-50
2022/08/04 06:13:29;;;;;;;6.25;3.88;;;19.10;99.90;;;;;;5092709;28;20047;-49
2022/08/04 06:16:19;;;;;;;5.57;3.60;;;19.20;99.90;;;;;;5093075;28;20070;-49
2022/08/04 06:19:01;;;;;;;6.82;3.63;;;19.40;99.90;;;;;;5091945;28;20090;-49
2022/08/04 06:21:49;;;;;;;5.47;3.58;;;19.40;99.90;;;;;;5089391;28;20073;-51
2022/08/04 06:24:23;;;;;;;5.50;3.42;;;19.40;99.90;;;;;;5092471;28;20036;-51
2022/08/04 06:26:51;;;;;;;4.53;3.58;;;19.50;99.90;;;;;;5092466;28;20101;-50
2022/08/04 06:29:30;;;;;;;7.00;4.22;;;19.60;99.90;;;;;;5085993;28;20040;-49
2022/08/04 06:32:01;;;;;;;5.20;3.53;;;19.70;99.90;;;;;;5092407;28;20043;-54
2022/08/04 06:35:00;;;;;;;6.28;4.03;;;19.80;99.90;;;;;;5092259;28;20089;-50
2022/08/04 06:37:28;;;;;;;8.82;4.05;;;19.90;99.90;;;;;;5086722;28;20049;-51
2022/08/04 06:40:17;;;;;;;6.93;3.60;;;20.10;99.90;;;;;;5083680;28;20047;-50
2022/08/04 06:43:05;;;;;;;6.47;4.78;;;20.20;99.90;;;;;;5092574;28;20401;-51
2022/08/04 06:45:35;;;;;;;6.60;4.80;;;20.50;99.90;;;;;;5085063;28;20044;-51
2022/08/04 06:48:05;;;;;;;5.40;4.03;;;20.60;99.90;;;;;;5091091;28;20082;-51
2022/08/04 06:50:34;;;;;;;4.88;4.00;;;20.80;99.90;;;;;;5091695;28;20588;-49
2022/08/04 06:53:21;;;;;;;7.82;4.20;;;20.90;99.90;;;;;;5092234;28;20044;-51
2022/08/04 06:55:49;;;;;;;7.68;3.90;;;21.00;99.90;;;;;;5086736;28;20043;-50
2022/08/04 06:58:18;;;;;;;6.65;3.88;;;21.10;99.90;;;;;;5090941;28;20048;-51
2022/08/04 07:00:46;;;;;;;8.65;3.72;;;21.20;99.90;;;;;;5111897;22;20044;-49
2022/08/04 07:03:16;;;;;;;7.07;3.72;;;21.40;99.90;;;;;;5111256;28;20045;-49
2022/08/04 07:05:46;;;;;;;4.55;2.92;;;21.60;99.90;;;;;;5109418;28;20050;-50
2022/08/04 07:08:13;;;;;;;8.20;4.00;;;21.70;99.90;;;;;;5112107;28;20043;-51
2022/08/04 07:10:40;;;;;;;9.35;4.28;;;21.80;99.90;;;;;;5107183;28;20051;-49
2022/08/04 07:13:09;;;;;;;5.85;4.00;;;21.90;99.90;;;;;;5106398;28;20046;-49
2022/08/04 07:15:40;;;;;;;5.78;4.10;;;21.90;99.90;;;;;;5111949;28;20499;-51
2022/08/04 07:18:07;;;;;;;7.07;3.72;;;22.00;99.90;;;;;;5111968;28;20036;-49
2022/08/04 07:20:34;;;;;;;10.55;4.70;;;22.20;99.90;;;;;;5110498;28;20043;-48
2022/08/04 07:23:04;;;;;;;4.18;3.78;;;22.30;99.90;;;;;;5093615;28;20052;-50
2022/08/04 07:25:33;;;;;;;6.90;4.30;;;22.40;99.90;;;;;;5111777;28;20036;-50
2022/08/04 07:28:20;;;;;;;5.85;4.20;;;22.60;99.90;;;;;;5111761;28;20047;-48
2022/08/04 07:30:48;;;;;;;4.82;4.00;;;22.80;99.90;;;;;;5108456;28;20043;-50
2022/08/04 07:33:16;;;;;;;6.32;4.10;;;22.90;99.90;;;;;;5093841;28;20044;-49
2022/08/04 07:35:49;;;;;;;7.55;4.03;;;23.00;99.90;;;;;;5111780;28;20044;-49
2022/08/04 07:38:38;;;;;;;8.00;4.25;;;23.20;99.90;;;;;;5108228;28;20079;-49
2022/08/04 07:41:21;;;;;;;6.32;3.83;;;23.30;99.90;;;;;;5104006;28;20050;-50
2022/08/04 07:44:04;;;;;;;4.63;3.72;;;23.40;99.90;;;;;;5111597;28;20108;-50
2022/08/04 07:46:31;;;;;;;9.48;4.40;;;23.50;99.90;;;;;;5092082;28;20051;-51
2022/08/04 07:49:02;;;;;;;4.32;3.45;;;23.60;99.90;;;;;;5111548;28;20404;-50
2022/08/04 07:51:30;;;;;;;6.13;3.90;;;23.80;99.90;;;;;;5111203;28;20043;-48
2022/08/04 07:53:59;;;;;;;8.30;3.80;;;23.90;99.90;;;;;;5109678;28;20040;-52
2022/08/04 07:56:26;;;;;;;5.72;3.38;;;24.00;99.90;;;;;;5111122;28;20153;-50
2022/08/04 07:58:53;;;;;;;6.35;3.80;;;24.10;99.90;;;;;;5111620;28;20051;-48
2022/08/04 08:01:20;;;;;;;;;;;24.10;99.90;;;;;;5093153;28;20048;-49
2022/08/04 08:03:48;;;;;;;5.97;3.97;;;24.20;99.90;;;;;;5103525;28;19928;-48
2022/08/04 08:06:15;;;;;;;5.47;4.03;;;24.50;99.90;;;;;;5111487;28;20502;-49
2022/08/04 08:09:05;;;;;;;4.20;3.80;;;24.70;99.90;;;;;;5112818;28;20043;-49
2022/08/04 08:11:41;;;;;;;5.97;3.53;;;25.00;99.90;;;;;;5115044;28;20082;-49
2022/08/04 08:14:29;;;;;;;7.53;3.97;;;25.00;99.90;;;;;;5112894;28;20065;-51
2022/08/04 08:17:01;;;;;;;5.10;3.88;;;25.00;99.90;;;;;;5115291;28;20054;-49
2022/08/04 08:19:29;;;;;;;5.75;3.80;;;25.20;99.90;;;;;;5115487;28;20123;-48
2022/08/04 08:21:57;;;;;;;4.40;4.00;;;25.20;99.90;;;;;;5112908;28;20066;-52
2022/08/04 08:24:31;;;;;;;5.15;3.90;;;25.20;99.90;;;;;;5109348;28;20034;-49
2022/08/04 08:26:58;;;;;;;6.15;4.28;;;25.30;99.90;;;;;;5115159;28;20403;-49
2022/08/04 08:29:28;;;;;;;5.97;3.83;;;25.40;99.90;;;;;;5115336;28;20036;-50
2022/08/04 08:31:55;;;;;;;5.82;3.75;;;25.50;99.90;;;;;;5113053;28;20043;-50
2022/08/04 08:34:29;;;;;;;6.70;3.55;;;25.50;99.90;;;;;;5115099;28;20044;-49
2022/08/04 08:37:11;;;;;;;8.80;4.05;;;25.60;99.90;;;;;;5114986;28;20047;-51
2022/08/04 08:39:54;;;;;;;5.07;3.65;;;25.70;99.90;;;;;;5111577;28;20052;-52
2022/08/04 08:42:46;;;;;;;4.60;3.90;;;25.80;99.90;;;;;;5108239;28;20422;-49
2022/08/04 08:45:40;;;;;;;3.97;3.55;;;25.90;99.90;;;;;;5115103;28;20046;-51
2022/08/04 08:48:28;;;;;;;3.92;3.60;;;26.20;99.90;;;;;;5114819;28;20059;-48
2022/08/04 08:51:17;;;;;;;7.82;4.07;;;26.20;99.90;;;;;;5106582;28;20067;-49
2022/08/04 08:54:19;;;;;;;8.15;3.80;;;26.40;99.90;;;;;;5114730;28;20065;-48
2022/08/04 08:56:51;;;;;;;4.18;3.75;;;26.70;99.90;;;;;;5110926;28;20055;-53
2022/08/04 08:59:30;;;;;;;5.47;3.78;;;26.80;99.90;;;;;;5109567;28;20048;-50
2022/08/04 09:02:19;;;;;;;5.28;3.92;;;26.80;99.90;;;;;;5112131;28;20039;-50
2022/08/04 09:05:16;;;;;;;4.05;3.65;;;26.80;99.90;;;;;;5114680;28;20047;-51
2022/08/04 09:08:14;;;;;;;5.83;3.60;;;26.80;99.90;;;;;;5114489;28;20040;-50
2022/08/04 09:10:52;;;;;;;3.95;3.55;;;26.90;99.90;;;;;;5110532;28;20450;-49
2022/08/04 09:13:29;;;;;;;4.32;3.40;;;27.00;99.90;;;;;;5093799;28;20055;-49
2022/08/04 09:16:06;;;;;;;5.53;3.90;;;27.00;99.90;;;;;;5095757;28;20036;-49
2022/08/04 09:18:55;;;;;;;5.50;4.00;;;27.10;99.90;;;;;;5114216;28;20054;-50
2022/08/04 09:21:30;;;;;;;4.00;3.60;;;27.10;99.90;;;;;;5112630;28;20039;-48
2022/08/04 09:24:24;;;;;;;8.88;3.78;;;27.20;99.90;;;;;;5113521;28;20078;-49
2022/08/04 09:27:29;;;;;;;7.68;4.05;;;27.20;99.90;;;;;;5113471;28;20517;-49
2022/08/04 09:30:02;;;;;;;6.93;4.22;;;27.30;99.90;;;;;;5076507;28;20391;-50
2022/08/04 09:32:40;;;;;;;11.85;4.30;;;27.30;99.90;;;;;;5114108;28;20055;-49
2022/08/04 09:35:17;;;;;;;5.70;4.07;;;27.40;99.90;;;;;;5113767;28;20040;-52
2022/08/04 09:38:04;;;;;;;7.15;3.83;;;27.40;99.90;;;;;;5113818;28;20043;-49
2022/08/04 09:40:34;;;;;;;4.45;4.05;;;27.40;99.90;;;;;;5113320;28;20044;-50
2022/08/04 09:43:56;;;;;;;6.43;4.38;;;27.40;99.90;;;;;;5110254;28;20039;-50
2022/08/04 09:46:58;;;;;;;8.10;4.00;;;27.50;99.90;;;;;;5109956;28;20100;-49
2022/08/04 09:49:42;;;;;;;5.32;4.00;;;27.60;99.90;;;;;;5095540;28;20085;-49
2022/08/04 09:52:43;;;;;;;4.55;4.03;;;27.80;99.90;;;;;;5111954;28;20047;-49
2022/08/04 09:55:14;;;;;;;4.30;3.53;;;27.90;99.90;;;;;;5105191;28;20048;-51
2022/08/04 09:58:12;;;;;;;5.82;4.00;;;28.10;99.90;;;;;;5113669;28;20036;-51
2022/08/04 10:00:45;;;;;;;7.68;4.60;;;28.00;99.90;;;;;;5110418;28;20050;-50
2022/08/04 10:03:15;;;;;;;6.13;4.20;;;27.90;99.90;;;;;;5105420;28;20055;-48
2022/08/04 10:06:18;;;;;;;4.65;4.15;;;27.90;99.90;;;;;;5113413;28;20036;-49
2022/08/04 10:09:09;;;;;;;6.95;3.97;;;28.10;99.90;;;;;;5113400;28;20043;-50
2022/08/04 10:12:00;;;;;;;4.90;3.72;;;28.20;99.90;;;;;;5109535;28;20035;-51
2022/08/04 10:14:40;;;;;;;5.68;4.50;;;28.40;99.90;;;;;;5092636;28;20044;-49
2022/08/04 10:17:44;;;;;;;5.72;3.78;;;28.40;99.90;;;;;;5092715;28;20405;-50
2022/08/04 10:20:33;;;;;;;4.35;3.95;;;28.50;99.90;;;;;;5097103;28;20051;-50
2022/08/04 10:23:26;;;;;;;5.85;4.13;;;28.70;99.90;;;;;;5105343;28;20546;-49
2022/08/04 10:26:28;;;;;;;5.18;4.55;;;28.70;99.90;;;;;;5113063;28;20039;-48
2022/08/04 10:29:38;;;;;;;6.20;4.18;;;28.90;99.90;;;;;;5099827;28;20480;-51
2022/08/04 10:32:19;;;;;;;5.32;4.32;;;29.00;99.90;;;;;;5101346;28;20114;-49
2022/08/04 10:35:10;;;;;;;4.97;4.00;;;29.10;99.90;;;;;;5112911;28;20048;-50
2022/08/04 10:37:52;;;;;;;4.68;3.97;;;29.10;99.90;;;;;;5089809;28;20102;-50
2022/08/04 10:40:44;;;;;;;5.82;4.03;;;29.30;99.90;;;;;;5106548;28;20114;-50
2022/08/04 10:43:49;;;;;;;4.35;3.95;;;29.40;99.90;;;;;;5112668;28;20039;-52
2022/08/04 10:46:25;;;;;;;5.05;4.25;;;29.60;99.90;;;;;;5111249;28;20039;-52
2022/08/04 10:49:08;;;;;;;4.90;3.97;;;29.50;99.90;;;;;;5093047;28;20040;-49
2022/08/04 10:51:47;;;;;;;4.78;4.13;;;29.70;99.90;;;;;;5112079;28;20515;-51
2022/08/04 10:55:02;;;;;;;5.32;4.60;;;29.70;99.90;;;;;;5112538;28;20456;-49
2022/08/04 10:57:34;;;;;;;4.65;3.75;;;30.00;99.90;;;;;;5108260;28;20065;-50
2022/08/04 11:00:09;;;;;;;7.32;4.07;;;30.10;99.90;;;;;;5111891;28;20035;-49
2022/08/04 11:03:07;;;;;;;5.05;4.55;;;30.10;99.40;;;;;;5112280;28;20039;-49
2022/08/04 11:05:45;;;;;;;5.28;4.50;;;30.10;99.90;;;;;;5083883;28;20385;-51
2022/08/04 11:08:26;;;;;;;4.50;4.10;;;30.20;99.90;;;;;;5091910;28;20043;-48
2022/08/04 11:11:11;;;;;;;5.88;3.72;;;30.40;99.40;;;;;;5091282;28;20481;-50
2022/08/04 11:13:58;;;;;;;4.70;3.78;;;30.50;99.40;;;;;;5091481;28;20401;-49
2022/08/04 11:16:29;;;;;;;4.43;4.03;;;30.80;99.90;;;;;;5106033;28;20062;-50
2022/08/04 11:19:12;;;;;;;5.68;4.15;;;30.90;99.90;;;;;;5111969;28;20031;-49
2022/08/04 11:21:43;;;;;;;5.97;3.90;;;31.00;99.90;;;;;;5111531;28;20054;-49
2022/08/04 11:24:18;;;;;;;4.15;3.75;;;31.00;98.10;;;;;;5092569;28;20045;-49
2022/08/04 11:26:59;;;;;;;6.25;3.88;;;31.20;98.20;;;;;;5111593;28;20044;-49
2022/08/04 11:29:44;;;;;;;11.15;3.80;;;31.20;97.70;;;;;;5112252;28;20396;-50
2022/08/04 11:32:25;;;;;;;6.63;3.55;;;31.20;97.00;;;;;;5104624;28;20036;-50
2022/08/04 11:34:58;;;;;;;3.55;3.25;;;31.20;96.80;;;;;;5111638;28;20495;-50
2022/08/04 11:37:35;;;;;;;5.03;3.50;;;31.30;96.10;;;;;;5111866;28;20047;-48
2022/08/04 11:40:23;;;;;;;5.13;3.63;;;31.30;96.30;;;;;;5104886;28;20404;-49
2022/08/04 11:43:01;;;;;;;4.10;3.25;;;31.30;97.00;;;;;;5111671;28;20035;-52
2022/08/04 11:45:36;;;;;;;4.07;3.55;;;31.50;97.40;;;;;;5093215;28;20044;-50
2022/08/04 11:48:11;;;;;;;3.88;3.58;;;31.60;96.70;;;;;;5109100;28;20040;-52
2022/08/04 11:50:43;;;;;;;4.43;3.15;;;31.80;96.70;;;;;;5106943;28;20036;-50
2022/08/04 11:53:15;;;;;;;4.53;3.20;;;31.70;96.60;;;;;;5091366;28;20047;-49
2022/08/04 11:55:49;;;;;;;3.00;2.80;;;31.80;95.70;;;;;;5091234;28;20048;-50
2022/08/04 11:58:36;;;;;;;3.65;2.92;;;31.80;95.50;;;;;;5106882;28;20074;-52
2022/08/04 12:01:28;;;;;;;4.45;3.05;;;31.80;94.50;;;;;;5111030;28;20044;-49
2022/08/04 12:04:12;;;;;;;4.75;3.00;;;31.90;95.50;;;;;;5093620;28;20046;-51
2022/08/04 12:07:14;;;;;;;3.72;3.03;;;31.90;94.60;;;;;;5107883;28;20047;-49
2022/08/04 12:10:25;;;;;;;4.82;3.20;;;31.80;95.60;;;;;;5109641;28;20043;-49
2022/08/04 12:13:26;;;;;;;9.45;4.05;;;31.70;95.40;;;;;;5111690;28;20096;-52
2022/08/04 12:16:11;;;;;;;4.40;3.03;;;31.70;97.00;;;;;;5102684;28;20111;-50
2022/08/04 12:19:01;;;;;;;4.28;3.67;;;31.80;95.10;;;;;;5111397;28;20046;-50
2022/08/04 12:22:04;;;;;;;10.82;4.15;;;31.80;95.70;;;;;;5110679;28;20047;-49
2022/08/04 12:24:39;;;;;;;4.30;3.17;;;31.70;95.10;;;;;;5088927;28;20059;-49
2022/08/04 12:27:23;;;;;;;6.00;3.17;;;31.80;94.80;;;;;;5110924;28;20036;-53
2022/08/04 12:29:56;;;;;;;4.53;2.88;;;32.00;95.50;;;;;;5110914;28;20483;-50
2022/08/04 12:33:08;;;;;;;3.22;2.65;;;31.90;94.90;;;;;;5111278;28;20132;-49
2022/08/04 12:35:48;;;;;;;3.75;2.85;;;31.90;94.10;;;;;;5107227;28;20050;-50
2022/08/04 12:38:42;;;;;;;3.15;2.70;;;31.80;93.60;;;;;;5076009;28;20493;-49
2022/08/04 12:41:12;;;;;;;4.20;2.70;;;31.90;93.40;;;;;;5090050;28;20044;-49
2022/08/04 12:43:46;;;;;;;5.95;3.47;;;32.00;92.30;;;;;;5107130;28;20518;-49
2022/08/04 12:46:24;;;;;;;4.22;2.45;;;32.10;93.30;;;;;;5090902;28;20044;-51
2022/08/04 12:48:57;;;;;;;4.30;3.55;;;32.20;93.20;;;;;;5090893;28;20040;-49
2022/08/04 12:51:26;;;;;;;7.55;2.78;;;32.20;94.00;;;;;;5104353;28;20040;-49
2022/08/04 12:54:20;;;;;;;10.95;3.28;;;32.30;93.40;;;;;;5110862;28;20036;-51
2022/08/04 12:56:57;;;;;;;2.95;2.70;;;32.40;93.50;;;;;;5113503;28;20046;-53
2022/08/04 12:59:25;;;;;;;4.82;3.03;;;32.30;93.10;;;;;;5108439;28;20043;-49
2022/08/04 13:01:54;;;;;;;5.35;3.13;;;32.30;93.10;;;;;;5131451;22;20050;-47
2022/08/04 13:04:41;;;;;;;4.57;2.88;;;32.20;92.90;;;;;;5118295;27;20055;-46
2022/08/04 13:07:19;;;;;;;2.92;2.72;;;32.00;93.50;;;;;;5116775;27;20039;-48
2022/08/04 13:09:47;;;;;;;5.53;3.28;;;32.00;92.80;;;;;;5124035;27;20415;-46
2022/08/04 13:12:18;;;;;;;5.85;3.20;;;32.00;93.20;;;;;;5121657;27;20381;-46
2022/08/04 13:14:49;;;;;;;3.00;2.70;;;31.90;92.80;;;;;;5114451;28;20044;-47
2022/08/04 13:17:16;;;;;;;2.45;2.25;;;32.00;92.70;;;;;;5123479;27;20043;-47
2022/08/04 13:19:48;;;;;;;8.43;2.60;;;32.20;92.80;;;;;;5117727;27;20043;-47
2022/08/04 13:22:29;;;;;;;4.53;2.40;;;32.30;92.80;;;;;;5114047;28;20047;-47
2022/08/04 13:24:59;;;;;;;4.35;2.88;;;32.50;92.80;;;;;;5116413;27;20058;-46
2022/08/04 13:27:47;;;;;;;3.65;2.90;;;32.50;92.10;;;;;;5117252;27;20566;-47
2022/08/04 13:30:22;;;;;;;3.90;2.90;;;32.60;93.00;;;;;;5113705;28;20118;-47
2022/08/04 13:33:01;;;;;;;11.05;2.95;;;32.50;91.80;;;;;;5115231;27;20054;-46
2022/08/04 13:35:29;;;;;;;3.10;2.58;;;32.50;91.00;;;;;;5119523;27;20510;-50
2022/08/04 13:38:17;;;;;;;12.20;3.28;;;32.50;91.70;;;;;;5114034;28;20100;-47
2022/08/04 13:40:45;;;;;;;4.25;2.55;;;32.50;91.20;;;;;;5113908;27;20389;-47
2022/08/04 13:43:23;;;;;;;2.88;2.30;;;32.40;91.60;;;;;;5122043;27;20039;-46
2022/08/04 13:46:18;;;;;;;9.10;2.57;;;32.60;92.60;;;;;;5113905;28;20043;-48
2022/08/04 13:48:56;;;;;;;7.07;3.00;;;32.70;92.40;;;;;;5113992;28;20435;-46
2022/08/04 13:52:04;;;;;;;5.88;3.22;;;32.80;91.00;;;;;;5097702;28;20039;-47
2022/08/04 13:54:45;;;;;;;3.83;2.53;;;32.80;91.00;;;;;;5113448;27;20039;-47
2022/08/04 13:57:22;;;;;;;4.35;2.97;;;32.80;89.90;;;;;;5112470;28;20469;-48
2022/08/04 13:59:57;;;;;;;4.15;3.03;;;32.80;91.40;;;;;;5124289;27;20548;-49
2022/08/04 14:02:37;;;;;;;3.33;2.40;;;32.80;91.00;;;;;;5146204;27;20579;-47
2022/08/04 14:05:19;;;;;;;2.90;2.70;;;32.90;92.00;;;;;;5154762;27;20045;-47
2022/08/04 14:08:07;;;;;;;3.45;2.88;;;33.10;90.30;;;;;;5140376;27;20043;-49